Time;durP1;ratioP1;P1;durP2;ratioP2;P2;SDS_P1;SDS_P2;PMS_P1;PMS_P2;Temp;Humidity;BMP_temperature;BMP_pressure;BME280_temperature;BME280_humidity;BME280_pressure;Samples;Min_cycle;Max_cycle;Signal;HPM_P1;HPM_P2
2023/07/10 00:00:41;;;;;;;;;;;26.10;99.90;;;;;;4994033;28;20000;-71
2023/07/10 00:03:20;;;;;;;;;;;26.00;99.90;;;;;;4992332;28;19940;-70
2023/07/10 00:05:46;;;;;;;;;;;25.50;99.90;;;;;;4992258;28;19906;-70
2023/07/10 00:08:11;;;;;;;;;;;25.40;99.90;;;;;;4992087;28;19917;-70
2023/07/10 00:10:37;;;;;;;;;;;25.20;99.90;;;;;;4993327;28;19905;-70
2023/07/10 00:13:03;;;;;;;;;;;24.90;99.90;;;;;;4991657;28;19992;-70
2023/07/10 00:15:28;;;;;;;;;;;24.70;99.90;;;;;;4994813;28;19906;-71
2023/07/10 00:17:53;;;;;;;;;;;24.60;99.90;;;;;;4985597;28;19933;-70
2023/07/10 00:20:20;;;;;;;;;;;24.60;99.90;;;;;;4983794;28;19933;-70
2023/07/10 00:22:46;;;;;;;;;;;24.60;99.90;;;;;;4991993;28;19910;-70
2023/07/10 00:25:15;;;;;;;;;;;24.60;99.90;;;;;;4987211;28;19932;-70
2023/07/10 00:27:42;;;;;;;;;;;24.50;99.90;;;;;;4983719;28;19906;-71
2023/07/10 00:30:13;;;;;;;;;;;24.40;99.90;;;;;;4983609;28;19960;-70
2023/07/10 00:32:39;;;;;;;;;;;24.40;99.90;;;;;;4983420;28;19906;-71
2023/07/10 00:35:04;;;;;;;;;;;24.30;99.90;;;;;;4984102;28;19960;-70
2023/07/10 00:37:30;;;;;;;;;;;24.20;99.90;;;;;;5003139;28;19909;-70
2023/07/10 00:39:55;;;;;;;;;;;24.20;99.90;;;;;;5003503;28;19913;-70
2023/07/10 00:42:22;;;;;;;;;;;24.00;99.90;;;;;;5003266;28;19972;-70
2023/07/10 00:44:52;;;;;;;;;;;24.00;99.90;;;;;;5002691;28;19944;-70
2023/07/10 00:47:17;;;;;;;;;;;24.10;99.90;;;;;;5003241;28;19905;-70
2023/07/10 00:49:47;;;;;;;;;;;24.10;99.90;;;;;;5002755;28;19906;-70
2023/07/10 00:52:24;;;;;;;;;;;24.10;99.90;;;;;;5003302;28;19995;-70
2023/07/10 00:54:51;;;;;;;;;;;24.00;99.90;;;;;;5003384;28;19905;-70
2023/07/10 00:57:36;;;;;;;;;;;23.90;99.90;;;;;;5003123;28;19913;-70
2023/07/10 01:00:15;;;;;;;;;;;23.90;99.90;;;;;;5002439;28;19948;-70
2023/07/10 01:02:40;;;;;;;;;;;23.90;99.90;;;;;;4998996;28;19955;-70
2023/07/10 01:05:06;;;;;;;;;;;23.80;99.90;;;;;;4998482;28;19905;-70
2023/07/10 01:07:35;;;;;;;;;;;23.90;99.90;;;;;;4999653;28;19952;-70
2023/07/10 01:10:01;;;;;;;;;;;23.90;99.90;;;;;;4999850;28;19914;-70
2023/07/10 01:12:28;;;;;;;;;;;23.90;99.90;;;;;;4999251;28;20059;-70
2023/07/10 01:14:53;;;;;;;;;;;23.90;99.90;;;;;;4999029;28;19906;-70
2023/07/10 01:17:19;;;;;;;;;;;23.90;99.90;;;;;;4999239;28;19910;-70
2023/07/10 01:19:45;;;;;;;;;;;23.90;99.90;;;;;;4999431;28;20008;-70
2023/07/10 01:22:11;;;;;;;;;;;23.80;99.90;;;;;;4998777;28;19906;-70
2023/07/10 01:24:37;;;;;;;;;;;23.90;99.90;;;;;;4999131;28;19913;-70
2023/07/10 01:27:04;;;;;;;;;;;23.90;99.90;;;;;;4998724;28;19906;-70
2023/07/10 01:29:35;;;;;;;;;;;23.80;99.90;;;;;;4998482;28;19906;-70
2023/07/10 01:32:00;;;;;;;;;;;23.80;99.90;;;;;;4998465;28;19913;-70
2023/07/10 01:34:40;;;;;;;;;;;23.90;99.90;;;;;;4999309;28;19906;-70
2023/07/10 01:37:06;;;;;;;;;;;23.90;99.90;;;;;;4998950;28;19914;-70
2023/07/10 01:39:31;;;;;;;;;;;23.90;99.90;;;;;;4998284;28;19905;-70
2023/07/10 01:41:56;;;;;;;;;;;23.80;99.90;;;;;;4982612;28;19906;-70
2023/07/10 01:44:26;;;;;;;;;;;23.70;99.90;;;;;;4999035;28;19905;-70
2023/07/10 01:46:52;;;;;;;;;;;23.70;99.90;;;;;;4998260;28;19906;-70
2023/07/10 01:49:21;;;;;;;;;;;23.60;99.90;;;;;;4998138;28;19912;-70
2023/07/10 01:51:47;;;;;;;;;;;23.70;99.90;;;;;;4998618;28;19912;-70
2023/07/10 01:54:16;;;;;;;;;;;23.70;99.90;;;;;;4998485;28;19906;-70
2023/07/10 01:56:42;;;;;;;;;;;23.50;99.90;;;;;;4998580;28;19996;-70
2023/07/10 01:59:07;;;;;;;;;;;23.50;99.90;;;;;;4998220;28;19940;-70
2023/07/10 02:01:33;;;;;;;;;;;23.60;99.90;;;;;;4998202;28;19912;-70
2023/07/10 02:03:58;;;;;;;;;;;23.50;99.90;;;;;;4998040;28;19953;-70
2023/07/10 02:06:23;;;;;;;;;;;23.50;99.90;;;;;;4998172;28;19961;-70
2023/07/10 02:08:49;;;;;;;;;;;23.50;99.90;;;;;;4997738;28;19917;-70
2023/07/10 02:11:14;;;;;;;;;;;23.30;99.90;;;;;;4998100;28;19910;-70
2023/07/10 02:13:40;;;;;;;;;;;23.20;99.90;;;;;;4998019;28;19960;-70
2023/07/10 02:16:09;;;;;;;;;;;23.10;99.90;;;;;;4998071;28;19913;-71
2023/07/10 02:18:34;;;;;;;;;;;22.80;99.90;;;;;;4997789;28;19916;-70
2023/07/10 02:21:00;;;;;;;;;;;22.70;99.90;;;;;;4997686;28;19952;-70
2023/07/10 02:23:25;;;;;;;;;;;22.80;99.90;;;;;;4997709;28;19905;-70
2023/07/10 02:25:51;;;;;;;;;;;22.90;99.90;;;;;;4997745;28;19992;-70
2023/07/10 02:28:16;;;;;;;;;;;23.00;99.90;;;;;;4998232;28;19996;-70
2023/07/10 02:31:00;;;;;;;;;;;23.00;99.90;;;;;;5000339;28;19911;-70
2023/07/10 02:33:26;;;;;;;;;;;23.10;99.90;;;;;;5000722;28;19905;-70
2023/07/10 02:35:51;;;;;;;;;;;23.10;99.90;;;;;;5001535;28;19906;-70
2023/07/10 02:38:17;;;;;;;;;;;23.10;99.90;;;;;;5000527;28;19909;-70
2023/07/10 02:40:43;;;;;;;;;;;23.10;99.90;;;;;;5000501;28;19956;-70
2023/07/10 02:43:09;;;;;;;;;;;23.10;99.90;;;;;;5001454;28;19936;-70
2023/07/10 02:45:34;;;;;;;;;;;23.40;99.90;;;;;;5000977;28;19928;-71
2023/07/10 02:48:00;;;;;;;;;;;23.40;99.90;;;;;;5001090;28;19905;-70
2023/07/10 02:50:26;;;;;;;;;;;23.40;99.90;;;;;;5001230;28;19959;-70
2023/07/10 02:52:51;;;;;;;;;;;23.40;99.90;;;;;;5001211;28;19912;-70
2023/07/10 02:55:17;;;;;;;;;;;23.50;99.90;;;;;;5000474;28;20004;-70
2023/07/10 02:57:42;;;;;;;;;;;23.70;99.90;;;;;;5000569;28;19913;-70
2023/07/10 03:00:08;;;;;;;;;;;23.80;99.90;;;;;;5000638;28;19906;-70
2023/07/10 03:02:33;;;;;;;;;;;23.90;99.90;;;;;;5000649;28;19913;-70
2023/07/10 03:04:59;;;;;;;;;;;23.90;99.90;;;;;;5000474;28;19952;-70
2023/07/10 03:07:24;;;;;;;;;;;23.80;99.90;;;;;;5000408;28;19916;-70
2023/07/10 03:09:50;;;;;;;;;;;23.90;99.90;;;;;;5000087;28;19913;-70
2023/07/10 03:12:15;;;;;;;;;;;23.90;99.90;;;;;;5000670;28;19913;-70
2023/07/10 03:14:41;;;;;;;;;;;23.70;99.90;;;;;;5001067;28;19947;-70
2023/07/10 03:17:06;;;;;;;;;;;23.70;99.90;;;;;;5000951;28;19915;-71
2023/07/10 03:19:32;;;;;;;;;;;23.70;99.90;;;;;;4999947;28;19979;-70
2023/07/10 03:21:58;;;;;;;;;;;23.70;99.90;;;;;;5001059;28;19913;-70
2023/07/10 03:24:23;;;;;;;;;;;23.60;99.90;;;;;;5000138;28;19905;-71
2023/07/10 03:26:48;;;;;;;;;;;23.70;99.90;;;;;;5000605;28;19956;-70
2023/07/10 03:29:15;;;;;;;;;;;23.80;99.90;;;;;;5003937;28;19923;-70
2023/07/10 03:31:40;;;;;;;;;;;23.90;99.90;;;;;;5004262;28;19912;-70
2023/07/10 03:34:06;;;;;;;;;;;23.90;99.90;;;;;;5004343;28;19909;-70
2023/07/10 03:36:31;;;;;;;;;;;24.00;99.90;;;;;;5004481;28;19905;-70
2023/07/10 03:38:57;;;;;;;;;;;24.00;99.90;;;;;;5004106;28;19912;-70
2023/07/10 03:41:23;;;;;;;;;;;24.00;99.90;;;;;;5004192;28;19905;-70
2023/07/10 03:43:52;;;;;;;;;;;23.90;99.90;;;;;;5003781;28;19912;-70
2023/07/10 03:46:17;;;;;;;;;;;23.80;99.90;;;;;;5004008;28;19912;-70
2023/07/10 03:48:43;;;;;;;;;;;23.70;99.90;;;;;;5003841;28;19906;-70
2023/07/10 03:51:09;;;;;;;;;;;23.60;99.90;;;;;;5003601;28;19905;-70
2023/07/10 03:53:34;;;;;;;;;;;23.60;99.90;;;;;;5004046;28;19905;-70
2023/07/10 03:56:00;;;;;;;;;;;23.60;99.90;;;;;;5003803;28;19905;-68
2023/07/10 03:58:28;;;;;;;;;;;23.50;99.90;;;;;;5003797;28;19936;-68
2023/07/10 04:00:55;;;;;;;;;;;23.40;99.90;;;;;;5003458;28;19909;-67
2023/07/10 04:03:22;;;;;;;;;;;23.30;99.90;;;;;;5003670;28;19913;-68
2023/07/10 04:05:52;;;;;;;;;;;23.20;99.90;;;;;;5004157;28;19905;-68
2023/07/10 04:08:19;;;;;;;;;;;23.20;99.90;;;;;;5003131;28;19976;-68
2023/07/10 04:10:51;;;;;;;;;;;23.00;99.90;;;;;;5003289;28;19906;-68
2023/07/10 04:13:16;;;;;;;;;;;23.00;99.90;;;;;;5004073;28;19964;-68
2023/07/10 04:15:42;;;;;;;;;;;23.10;99.90;;;;;;5003200;28;19990;-68
2023/07/10 04:18:07;;;;;;;;;;;23.20;99.90;;;;;;5003217;28;19916;-70
2023/07/10 04:20:33;;;;;;;;;;;23.30;99.90;;;;;;5003098;28;19905;-68
2023/07/10 04:22:58;;;;;;;;;;;23.30;99.90;;;;;;5003254;28;19911;-68
2023/07/10 04:25:24;;;;;;;;;;;23.20;99.90;;;;;;5003166;28;19905;-68
2023/07/10 04:27:49;;;;;;;;;;;23.30;99.90;;;;;;5002932;28;19913;-68
2023/07/10 04:30:15;;;;;;;;;;;23.40;99.90;;;;;;5002811;28;19955;-68
2023/07/10 04:32:40;;;;;;;;;;;23.40;99.90;;;;;;4999312;28;19914;-68
2023/07/10 04:35:06;;;;;;;;;;;23.40;99.90;;;;;;4983705;28;19956;-68
2023/07/10 04:37:31;;;;;;;;;;;23.40;99.90;;;;;;4983168;28;19949;-68
2023/07/10 04:39:57;;;;;;;;;;;23.40;99.90;;;;;;4981870;28;19906;-68
2023/07/10 04:42:23;;;;;;;;;;;23.40;99.90;;;;;;4983893;28;19913;-68
2023/07/10 04:44:48;;;;;;;;;;;23.50;99.90;;;;;;4983641;28;19956;-68
2023/07/10 04:47:14;;;;;;;;;;;23.60;99.90;;;;;;4983175;28;20064;-71
2023/07/10 04:49:39;;;;;;;;;;;23.60;99.90;;;;;;4983881;28;19977;-68
2023/07/10 04:52:05;;;;;;;;;;;23.60;99.90;;;;;;4983361;28;19954;-68
2023/07/10 04:54:31;;;;;;;;;;;23.50;99.90;;;;;;4984002;28;19906;-68
2023/07/10 04:56:56;;;;;;;;;;;23.40;99.90;;;;;;4983277;28;19909;-68
2023/07/10 04:59:22;;;;;;;;;;;23.40;99.90;;;;;;4983153;28;19913;-68
2023/07/10 05:01:47;;;;;;;;;;;23.40;99.90;;;;;;4982911;28;19927;-68
2023/07/10 05:04:13;;;;;;;;;;;23.50;99.90;;;;;;4983111;28;19910;-68
2023/07/10 05:06:38;;;;;;;;;;;23.50;99.90;;;;;;4982918;28;19960;-69
2023/07/10 05:09:04;;;;;;;;;;;23.50;99.90;;;;;;5022753;23;20016;-71
2023/07/10 05:11:30;;;;;;;;;;;23.60;99.90;;;;;;5039277;28;19905;-71
2023/07/10 05:13:56;;;;;;;;;;;23.60;99.90;;;;;;5038573;28;19955;-71
2023/07/10 05:16:22;;;;;;;;;;;23.70;99.90;;;;;;5039296;28;19908;-71
2023/07/10 05:18:48;;;;;;;;;;;23.70;99.90;;;;;;5038989;28;19909;-71
2023/07/10 05:21:13;;;;;;;;;;;23.80;99.90;;;;;;5038022;28;20003;-71
2023/07/10 05:23:38;;;;;;;;;;;23.70;99.90;;;;;;5038884;28;19905;-71
2023/07/10 05:26:06;;;;;;;;;;;23.70;99.90;;;;;;5037944;28;19988;-71
2023/07/10 05:28:31;;;;;;;;;;;23.80;99.90;;;;;;5037828;28;19909;-71
2023/07/10 05:30:58;;;;;;;;;;;23.70;99.90;;;;;;5038040;28;19963;-71
2023/07/10 05:33:23;;;;;;;;;;;23.80;99.90;;;;;;5038754;28;19911;-71
2023/07/10 05:35:50;;;;;;;;;;;23.80;99.90;;;;;;5038046;28;19905;-71
2023/07/10 05:38:15;;;;;;;;;;;23.80;99.90;;;;;;5037472;28;19909;-71
2023/07/10 05:40:41;;;;;;;;;;;23.80;99.90;;;;;;5037805;28;19964;-71
2023/07/10 05:43:06;;;;;;;;;;;23.80;99.90;;;;;;5037580;28;19905;-71
2023/07/10 05:45:32;;;;;;;;;;;23.90;99.90;;;;;;5037916;28;19912;-71
2023/07/10 05:47:57;;;;;;;;;;;23.90;99.90;;;;;;5037499;28;19909;-71
2023/07/10 05:50:23;;;;;;;;;;;23.80;99.90;;;;;;5036954;28;20016;-71
2023/07/10 05:52:48;;;;;;;;;;;23.70;99.90;;;;;;5037502;28;19905;-71
2023/07/10 05:55:13;;;;;;;;;;;23.80;99.90;;;;;;5037732;28;19905;-71
2023/07/10 05:57:39;;;;;;;;;;;23.80;99.90;;;;;;5037394;28;19909;-71
2023/07/10 06:00:06;;;;;;;;;;;23.80;99.90;;;;;;5033382;28;20234;-71
2023/07/10 06:02:31;;;;;;;;;;;23.90;99.90;;;;;;5018434;28;19916;-71
2023/07/10 06:04:57;;;;;;;;;;;23.90;99.90;;;;;;5017593;28;19905;-71
2023/07/10 06:07:23;;;;;;;;;;;23.80;99.90;;;;;;5018395;28;19905;-71
2023/07/10 06:09:48;;;;;;;;;;;23.70;99.90;;;;;;5018868;28;19956;-71
2023/07/10 06:12:13;;;;;;;;;;;23.80;99.90;;;;;;5017885;28;19905;-71
2023/07/10 06:14:39;;;;;;;;;;;23.80;99.90;;;;;;5017787;28;19928;-72
2023/07/10 06:17:04;;;;;;;;;;;23.90;99.90;;;;;;5018055;28;19914;-71
2023/07/10 06:19:30;;;;;;;;;;;23.90;99.90;;;;;;5017512;28;19906;-71
2023/07/10 06:22:09;;;;;;;;;;;23.90;99.90;;;;;;5017118;28;19905;-72
2023/07/10 06:24:34;;;;;;;;;;;23.90;99.90;;;;;;5017507;28;19905;-71
2023/07/10 06:27:00;;;;;;;;;;;24.10;99.90;;;;;;5018297;28;19988;-71
2023/07/10 06:29:25;;;;;;;;;;;24.30;99.90;;;;;;5017340;28;19906;-72
2023/07/10 06:31:52;;;;;;;;;;;24.30;99.90;;;;;;5001330;28;20027;-71
2023/07/10 06:34:17;;;;;;;;;;;24.40;99.90;;;;;;5017848;28;19953;-71
2023/07/10 06:36:43;;;;;;;;;;;24.50;99.90;;;;;;5017013;28;19972;-72
2023/07/10 06:39:08;;;;;;;;;;;24.50;99.90;;;;;;5017192;28;19911;-72
2023/07/10 06:41:34;;;;;;;;;;;24.40;99.90;;;;;;5016858;28;19905;-72
2023/07/10 06:43:59;;;;;;;;;;;24.40;99.90;;;;;;5016970;28;19912;-72
2023/07/10 06:46:25;;;;;;;;;;;24.50;99.90;;;;;;5016751;28;19910;-72
2023/07/10 06:48:51;;;;;;;;;;;24.50;99.90;;;;;;5016798;28;19906;-72
2023/07/10 06:51:16;;;;;;;;;;;24.50;99.90;;;;;;5017237;28;19932;-72
2023/07/10 06:53:42;;;;;;;;;;;24.50;99.90;;;;;;5017095;28;19920;-72
2023/07/10 06:56:07;;;;;;;;;;;24.50;99.90;;;;;;5016735;28;19905;-71
2023/07/10 06:58:33;;;;;;;;;;;24.40;99.90;;;;;;5016505;28;19977;-71
2023/07/10 07:01:00;;;;;;;;;;;24.50;99.90;;;;;;5016843;28;19972;-69
2023/07/10 07:03:26;;;;;;;;;;;24.50;99.90;;;;;;5015815;28;19944;-69
2023/07/10 07:05:52;;;;;;;;;;;24.50;99.90;;;;;;5016975;28;19928;-69
2023/07/10 07:08:18;;;;;;;;;;;24.30;99.90;;;;;;5016681;28;19905;-69
2023/07/10 07:10:43;;;;;;;;;;;24.40;99.90;;;;;;5017366;28;19909;-69
2023/07/10 07:13:09;;;;;;;;;;;24.30;99.90;;;;;;5016700;28;19956;-68
2023/07/10 07:15:35;;;;;;;;;;;24.50;99.90;;;;;;5016794;28;19912;-69
2023/07/10 07:18:00;;;;;;;;;;;24.50;99.90;;;;;;5017307;28;19909;-68
2023/07/10 07:20:26;;;;;;;;;;;24.70;99.90;;;;;;5016945;28;19913;-69
2023/07/10 07:22:51;;;;;;;;;;;24.90;99.90;;;;;;5026379;28;19909;-69
2023/07/10 07:25:18;;;;;;;;;;;24.90;99.90;;;;;;5036251;28;19905;-68
2023/07/10 07:27:43;;;;;;;;;;;25.00;99.90;;;;;;5029901;28;19905;-69
2023/07/10 07:30:09;;;;;;;;;;;25.20;99.90;;;;;;5016285;28;19905;-69
2023/07/10 07:32:34;;;;;;;;;;;25.10;99.90;;;;;;5016744;28;19996;-70
2023/07/10 07:35:02;;;;;;;;;;;25.30;99.90;;;;;;5016680;28;19906;-69
2023/07/10 07:37:28;;;;;;;;;;;25.40;99.90;;;;;;5030356;28;19924;-70
2023/07/10 07:39:54;;;;;;;;;;;25.50;99.90;;;;;;5036266;28;19909;-70
2023/07/10 07:42:20;;;;;;;;;;;25.60;99.90;;;;;;5036830;28;19905;-70
2023/07/10 07:44:46;;;;;;;;;;;25.50;99.90;;;;;;5036316;28;20000;-69
2023/07/10 07:47:11;;;;;;;;;;;25.40;99.90;;;;;;5036257;28;20073;-68
2023/07/10 07:49:37;;;;;;;;;;;25.30;99.90;;;;;;5036147;28;19905;-68
2023/07/10 07:52:02;;;;;;;;;;;25.20;99.90;;;;;;5036483;28;19909;-69
2023/07/10 07:54:27;;;;;;;;;;;25.20;99.90;;;;;;5036198;28;19905;-68
2023/07/10 07:56:53;;;;;;;;;;;25.20;99.90;;;;;;5035744;28;19914;-68
2023/07/10 07:59:18;;;;;;;;;;;25.10;99.90;;;;;;5036024;28;19913;-68
2023/07/10 08:01:45;;;;;;;;;;;25.20;99.90;;;;;;5035898;28;19952;-68
2023/07/10 08:04:10;;;;;;;;;;;25.20;99.90;;;;;;5036112;28;19912;-69
2023/07/10 08:06:36;;;;;;;;;;;25.10;99.90;;;;;;5035766;28;19905;-69
2023/07/10 08:09:02;;;;;;;;;;;25.20;99.90;;;;;;5035564;28;19924;-68
2023/07/10 08:11:28;;;;;;;;;;;25.20;99.90;;;;;;5036053;28;19910;-69
2023/07/10 08:13:53;;;;;;;;;;;25.50;99.90;;;;;;5037538;28;19927;-69
2023/07/10 08:16:19;;;;;;;;;;;25.60;99.90;;;;;;5039435;28;19905;-70
2023/07/10 08:18:44;;;;;;;;;;;25.60;99.90;;;;;;5039667;28;19909;-68
2023/07/10 08:21:12;;;;;;;;;;;25.80;99.90;;;;;;5039373;28;20004;-68
2023/07/10 08:23:38;;;;;;;;;;;25.70;99.90;;;;;;5039519;28;19905;-68
2023/07/10 08:26:03;;;;;;;;;;;25.80;99.90;;;;;;5039476;28;19905;-68
2023/07/10 08:28:31;;;;;;;;;;;25.80;99.90;;;;;;5039217;28;19916;-68
2023/07/10 08:30:56;;;;;;;;;;;25.60;99.90;;;;;;5039909;28;19905;-68
2023/07/10 08:33:22;;;;;;;;;;;25.50;99.90;;;;;;5039371;28;19916;-68
2023/07/10 08:36:02;;;;;;;;;;;25.60;99.90;;;;;;5038905;28;19905;-68
2023/07/10 08:38:28;;;;;;;;;;;25.70;99.90;;;;;;5039425;28;20036;-68
2023/07/10 08:40:57;;;;;;;;;;;25.90;99.90;;;;;;5039371;28;19909;-70
2023/07/10 08:43:30;;;;;;;;;;;26.00;99.90;;;;;;5038936;28;19959;-69
2023/07/10 08:46:25;;;;;;;;;;;25.90;99.90;;;;;;5038947;28;19906;-68
2023/07/10 08:48:56;;;;;;;;;;;25.90;99.90;;;;;;5039540;28;19954;-68
2023/07/10 08:51:21;;;;;;;;;;;25.90;99.90;;;;;;5039086;28;19904;-68
2023/07/10 08:53:52;;;;;;;;;;;25.80;99.90;;;;;;5039001;28;19912;-68
2023/07/10 08:56:18;;;;;;;;;;;25.90;99.90;;;;;;5039414;28;19913;-69
2023/07/10 08:58:43;;;;;;;;;;;25.90;99.90;;;;;;5038519;28;19909;-68
2023/07/10 09:01:26;;;;;;;;;;;25.80;99.90;;;;;;5038965;28;19911;-68
2023/07/10 09:03:52;;;;;;;;;;;25.70;99.90;;;;;;5039500;28;19905;-68
2023/07/10 09:06:19;;;;;;;;;;;25.80;99.90;;;;;;5038610;28;19905;-68
2023/07/10 09:08:49;;;;;;;;;;;25.80;99.90;;;;;;5038719;28;19909;-69
2023/07/10 09:11:14;;;;;;;;;;;26.00;99.90;;;;;;5038717;28;20004;-68
2023/07/10 09:13:43;;;;;;;;;;;26.30;99.90;;;;;;5038268;28;19943;-68
2023/07/10 09:16:13;;;;;;;;;;;26.40;99.90;;;;;;5038213;28;20008;-68
2023/07/10 09:18:46;;;;;;;;;;;26.50;99.90;;;;;;5038328;28;19931;-69
2023/07/10 09:21:15;;;;;;;;;;;26.40;99.90;;;;;;5038203;28;19931;-68
2023/07/10 09:23:40;;;;;;;;;;;26.20;99.90;;;;;;5038143;28;19992;-68
2023/07/10 09:26:11;;;;;;;;;;;26.10;99.90;;;;;;5037490;28;19963;-68
2023/07/10 09:28:40;;;;;;;;;;;25.90;99.90;;;;;;5033026;28;19917;-68
2023/07/10 09:31:08;;;;;;;;;;;26.10;99.90;;;;;;5021615;28;19905;-68
2023/07/10 09:33:40;;;;;;;;;;;26.10;99.90;;;;;;5024351;28;19917;-69
2023/07/10 09:36:16;;;;;;;;;;;26.00;99.90;;;;;;5017980;28;19991;-69
2023/07/10 09:38:44;;;;;;;;;;;25.90;99.90;;;;;;5021070;28;19916;-68
2023/07/10 09:41:11;;;;;;;;;;;26.20;99.90;;;;;;5037753;28;19912;-68
2023/07/10 09:43:37;;;;;;;;;;;26.30;99.90;;;;;;5038002;28;19905;-68
2023/07/10 09:46:23;;;;;;;;;;;26.30;99.90;;;;;;5038400;28;19916;-69
2023/07/10 09:48:50;;;;;;;;;;;26.40;99.90;;;;;;5037603;28;20042;-68
2023/07/10 09:51:17;;;;;;;;;;;26.70;99.90;;;;;;5037419;28;19915;-69
2023/07/10 09:53:47;;;;;;;;;;;26.80;99.90;;;;;;5037691;28;19909;-68
2023/07/10 09:56:27;;;;;;;;;;;26.90;99.90;;;;;;5037836;28;19909;-69
2023/07/10 09:58:55;;;;;;;;;;;27.10;99.90;;;;;;5037739;28;19912;-68
2023/07/10 10:01:28;;;;;;;;;;;27.20;99.90;;;;;;5037360;28;19974;-68
2023/07/10 10:03:54;;;;;;;;;;;27.30;99.90;;;;;;5037250;28;19905;-68
2023/07/10 10:06:24;;;;;;;;;;;27.40;99.90;;;;;;5037541;28;20008;-68
2023/07/10 10:08:51;;;;;;;;;;;27.50;99.90;;;;;;5037596;28;19913;-68
2023/07/10 10:11:17;;;;;;;;;;;27.40;99.90;;;;;;5037151;28;19905;-68
2023/07/10 10:13:45;;;;;;;;;;;27.40;99.90;;;;;;5037686;28;19936;-68
2023/07/10 10:16:14;;;;;;;;;;;27.40;99.90;;;;;;5037983;28;19909;-69
2023/07/10 10:18:50;;;;;;;;;;;27.50;99.90;;;;;;5037022;28;19909;-68
2023/07/10 10:21:17;;;;;;;;;;;27.50;99.90;;;;;;5037517;28;19909;-69
2023/07/10 10:23:45;;;;;;;;;;;27.30;99.90;;;;;;5037348;28;19917;-69
2023/07/10 10:26:26;;;;;;;;;;;27.50;99.90;;;;;;5023619;28;20003;-68
2023/07/10 10:29:04;;;;;;;;;;;27.50;99.90;;;;;;5017581;28;19906;-68
2023/07/10 10:31:34;;;;;;;;;;;27.60;99.90;;;;;;5017289;28;19913;-69
2023/07/10 10:34:06;;;;;;;;;;;27.60;99.90;;;;;;5017049;28;19912;-68
2023/07/10 10:36:44;;;;;;;;;;;27.70;99.90;;;;;;5017556;28;19916;-68
2023/07/10 10:39:20;;;;;;;;;;;27.80;99.90;;;;;;5017274;28;19916;-68
2023/07/10 10:41:45;;;;;;;;;;;28.00;99.90;;;;;;5017921;28;19928;-68
2023/07/10 10:44:29;;;;;;;;;;;28.30;99.90;;;;;;5017196;28;19906;-69
2023/07/10 10:47:03;;;;;;;;;;;28.70;99.90;;;;;;5017362;28;19905;-68
2023/07/10 10:49:34;;;;;;;;;;;28.80;99.90;;;;;;5025137;28;20007;-69
2023/07/10 10:52:09;;;;;;;;;;;28.90;99.90;;;;;;5026561;28;19905;-69
2023/07/10 10:54:54;;;;;;;;;;;29.20;99.90;;;;;;5050146;28;19905;-69
2023/07/10 10:57:20;;;;;;;;;;;29.40;99.90;;;;;;5030030;28;19963;-69
2023/07/10 11:00:06;;;;;;;;;;;29.80;99.90;;;;;;5020035;28;19905;-69
2023/07/10 11:02:40;;;;;;;;;;;30.40;99.90;;;;;;5010415;28;19905;-69
2023/07/10 11:05:18;;;;;;;;;;;31.00;99.90;;;;;;5025584;28;19971;-69
2023/07/10 11:10:47;;;;;;;;;;;32.00;99.90;;;;;;5037745;28;19928;-69
2023/07/10 11:13:19;;;;;;;;;;;31.80;99.90;;;;;;5036544;28;19909;-69
2023/07/10 11:15:45;;;;;;;;;;;31.50;99.90;;;;;;5036183;28;19905;-69
2023/07/10 11:18:12;;;;;;;;;;;31.70;99.90;;;;;;5036189;28;19909;-68
2023/07/10 11:20:38;;;;;;;;;;;32.20;99.90;;;;;;5036347;28;19921;-68
2023/07/10 11:23:08;;;;;;;;;;;32.00;99.90;;;;;;5036574;28;19999;-68
2023/07/10 11:28:47;;;;;;;;;;;30.80;99.90;;;;;;5037031;28;19912;-68
2023/07/10 11:31:17;;;;;;;;;;;30.50;99.90;;;;;;5028004;28;19931;-68
2023/07/10 11:33:43;;;;;;;;;;;30.40;99.90;;;;;;5024144;28;19909;-68
2023/07/10 11:36:14;;;;;;;;;;;30.30;99.90;;;;;;5034607;28;19912;-68
2023/07/10 11:38:58;;;;;;;;;;;30.20;99.90;;;;;;5035856;28;19909;-68
2023/07/10 11:41:26;;;;;;;;;;;30.20;99.90;;;;;;5036151;28;19912;-67
2023/07/10 11:44:12;;;;;;;;;;;30.00;99.90;;;;;;5031292;28;19905;-67
2023/07/10 11:46:53;;;;;;;;;;;30.00;99.90;;;;;;5021851;28;19948;-68
2023/07/10 11:49:19;;;;;;;;;;;30.10;99.90;;;;;;5038720;28;19967;-68
2023/07/10 11:52:05;;;;;;;;;;;30.30;99.90;;;;;;5039753;28;19909;-68
2023/07/10 11:54:33;;;;;;;;;;;30.50;99.90;;;;;;5032744;28;19928;-68
2023/07/10 11:57:08;;;;;;;;;;;30.40;99.90;;;;;;5039615;28;19955;-67
2023/07/10 11:59:34;;;;;;;;;;;30.40;99.90;;;;;;5039699;28;19913;-68
2023/07/10 12:01:59;;;;;;;;;;;30.40;99.90;;;;;;5039605;28;19905;-68
2023/07/10 12:04:41;;;;;;;;;;;30.40;99.90;;;;;;5039583;28;19920;-68
2023/07/10 12:07:10;;;;;;;;;;;30.20;99.90;;;;;;5032729;28;19912;-67
2023/07/10 12:09:36;;;;;;;;;;;30.10;99.90;;;;;;5019864;28;19967;-67
2023/07/10 12:12:01;;;;;;;;;;;30.10;99.90;;;;;;5039123;28;19909;-67
2023/07/10 12:14:28;;;;;;;;;;;30.00;99.90;;;;;;5039995;28;19908;-68
2023/07/10 12:16:55;;;;;;;;;;;30.10;99.90;;;;;;5039189;28;19909;-67
2023/07/10 12:19:25;;;;;;;;;;;30.10;99.90;;;;;;5039508;28;19905;-67
2023/07/10 12:21:50;;;;;;;;;;;30.00;99.90;;;;;;5039068;28;19947;-68
2023/07/10 12:24:16;;;;;;;;;;;30.10;99.90;;;;;;5039213;28;19905;-68
2023/07/10 12:26:42;;;;;;;;;;;30.30;99.90;;;;;;5039176;28;19936;-70
2023/07/10 12:29:12;;;;;;;;;;;30.40;99.90;;;;;;5039016;28;19905;-67
2023/07/10 12:31:38;;;;;;;;;;;30.70;99.90;;;;;;5039088;28;20050;-67
2023/07/10 12:34:05;;;;;;;;;;;30.80;99.90;;;;;;5039161;28;19984;-68
2023/07/10 12:36:37;;;;;;;;;;;30.90;99.90;;;;;;5039040;28;19905;-68
2023/07/10 12:39:04;;;;;;;;;;;31.00;99.90;;;;;;5039896;28;19931;-68
2023/07/10 12:41:33;;;;;;;;;;;31.10;98.60;;;;;;5038933;28;19916;-67
2023/07/10 12:44:00;;;;;;;;;;;31.10;98.60;;;;;;5039717;28;19912;-68
2023/07/10 12:46:28;;;;;;;;;;;31.10;98.50;;;;;;5039414;28;19905;-67
2023/07/10 12:49:12;;;;;;;;;;;31.10;96.50;;;;;;5038982;28;19944;-68
2023/07/10 12:51:39;;;;;;;;;;;31.00;97.30;;;;;;5038705;28;19905;-68
2023/07/10 12:54:11;;;;;;;;;;;31.10;98.50;;;;;;5038703;28;19905;-68
2023/07/10 12:56:39;;;;;;;;;;;31.00;98.20;;;;;;5039422;28;19905;-68
2023/07/10 12:59:06;;;;;;;;;;;31.20;97.10;;;;;;5038368;28;19915;-68
2023/07/10 13:01:35;;;;;;;;;;;31.20;96.60;;;;;;5038498;28;19905;-68
2023/07/10 13:04:04;;;;;;;;;;;31.10;97.00;;;;;;5038512;28;19999;-67
2023/07/10 13:06:30;;;;;;;;;;;31.00;96.80;;;;;;5038790;28;19912;-67
2023/07/10 13:08:57;;;;;;;;;;;30.90;97.20;;;;;;5038195;28;19912;-68
2023/07/10 13:11:23;;;;;;;;;;;31.10;96.20;;;;;;5039630;28;19909;-67
2023/07/10 13:13:49;;;;;;;;;;;31.30;95.80;;;;;;5038001;28;19909;-67
2023/07/10 13:16:17;;;;;;;;;;;31.30;94.30;;;;;;5039109;28;19916;-67
2023/07/10 13:18:43;;;;;;;;;;;31.30;93.10;;;;;;5039102;28;19912;-67
2023/07/10 13:21:13;;;;;;;;;;;31.30;93.60;;;;;;5038263;28;19905;-68
2023/07/10 13:23:38;;;;;;;;;;;31.30;93.40;;;;;;5039309;28;19905;-67
2023/07/10 13:26:18;;;;;;;;;;;31.20;93.00;;;;;;5038094;28;19928;-67
2023/07/10 13:28:44;;;;;;;;;;;31.20;93.50;;;;;;5038148;28;19909;-68
2023/07/10 13:31:09;;;;;;;;;;;31.30;93.80;;;;;;5037963;28;19905;-68
2023/07/10 13:33:35;;;;;;;;;;;31.40;94.20;;;;;;5038493;28;19928;-68
2023/07/10 13:36:01;;;;;;;;;;;31.20;93.90;;;;;;5038477;28;19905;-68
2023/07/10 13:38:27;;;;;;;;;;;31.20;94.00;;;;;;5037751;28;19913;-68
2023/07/10 13:40:59;;;;;;;;;;;31.30;94.30;;;;;;5038185;28;19905;-67
2023/07/10 13:43:25;;;;;;;;;;;31.60;92.80;;;;;;5038478;28;19905;-68
2023/07/10 13:45:55;;;;;;;;;;;31.60;92.50;;;;;;5038181;28;19927;-69
2023/07/10 13:48:20;;;;;;;;;;;31.80;92.00;;;;;;5037653;28;19905;-68
2023/07/10 13:51:33;;;;;;;7.20;4.20;;;31.80;91.40;;;;;;5075187;28;20433;-67
2023/07/10 13:53:59;;;;;;;5.43;3.85;;;31.90;92.10;;;;;;5073799;28;20025;-68
2023/07/10 13:56:37;;;;;;;5.55;3.38;;;31.80;92.50;;;;;;5073528;28;20025;-68
2023/07/10 13:59:04;;;;;;;5.78;3.90;;;31.60;92.90;;;;;;5073370;28;20025;-68
2023/07/10 14:01:32;;;;;;;7.70;3.58;;;31.40;93.10;;;;;;5073130;28;20108;-68
2023/07/10 14:03:59;;;;;;;9.02;3.72;;;31.10;93.10;;;;;;5073605;28;20023;-68
2023/07/10 14:06:24;;;;;;;6.28;3.72;;;31.00;94.60;;;;;;5073108;28;20032;-68
2023/07/10 14:09:00;;;;;;;4.15;3.40;;;30.70;95.40;;;;;;5073406;28;20021;-68
2023/07/10 14:11:26;;;;;;;5.97;3.70;;;30.80;95.00;;;;;;5073595;28;20020;-68
2023/07/10 14:13:52;;;;;;;7.13;3.65;;;30.80;95.30;;;;;;5073521;28;20017;-68
2023/07/10 14:17:07;;;;;;;4.78;3.03;;;30.70;94.70;;;;;;5074459;28;20021;-68
2023/07/10 14:19:49;;;;;;;3.85;3.47;;;30.90;93.20;;;;;;5072923;28;20021;-68
2023/07/10 14:22:16;;;;;;;5.10;3.45;;;31.40;92.40;;;;;;5074123;28;20029;-67
2023/07/10 14:24:42;;;;;;;6.38;3.63;;;31.50;92.60;;;;;;5072991;28;20021;-67